sensor_id;sensor_type;location;lat;lon;timestamp;P1;durP1;ratioP1;P2;durP2;ratioP2
25615;SDS011;13482;48.234;13.006;2024-03-17T00:01:10;2.38;;;1.30;;
25615;SDS011;13482;48.234;13.006;2024-03-17T00:03:37;2.17;;;1.30;;
25615;SDS011;13482;48.234;13.006;2024-03-17T00:06:03;2.03;;;1.30;;
25615;SDS011;13482;48.234;13.006;2024-03-17T00:08:30;2.53;;;1.30;;
25615;SDS011;13482;48.234;13.006;2024-03-17T00:10:56;2.17;;;1.35;;
25615;SDS011;13482;48.234;13.006;2024-03-17T00:13:23;2.40;;;1.55;;
25615;SDS011;13482;48.234;13.006;2024-03-17T00:15:49;2.80;;;1.38;;
25615;SDS011;13482;48.234;13.006;2024-03-17T00:18:16;2.00;;;1.30;;
25615;SDS011;13482;48.234;13.006;2024-03-17T00:20:43;2.30;;;1.40;;
25615;SDS011;13482;48.234;13.006;2024-03-17T00:23:10;2.47;;;1.38;;
25615;SDS011;13482;48.234;13.006;2024-03-17T00:25:46;2.28;;;1.30;;
25615;SDS011;13482;48.234;13.006;2024-03-17T00:28:57;1.75;;;1.25;;
25615;SDS011;13482;48.234;13.006;2024-03-17T00:31:30;1.90;;;1.30;;
25615;SDS011;13482;48.234;13.006;2024-03-17T00:33:57;2.25;;;1.33;;
25615;SDS011;13482;48.234;13.006;2024-03-17T00:36:23;2.15;;;1.30;;
25615;SDS011;13482;48.234;13.006;2024-03-17T00:38:50;1.98;;;1.30;;
25615;SDS011;13482;48.234;13.006;2024-03-17T00:41:17;2.15;;;1.50;;
25615;SDS011;13482;48.234;13.006;2024-03-17T00:43:45;2.17;;;1.58;;
25615;SDS011;13482;48.234;13.006;2024-03-17T00:46:11;2.40;;;1.48;;
25615;SDS011;13482;48.234;13.006;2024-03-17T00:48:37;1.77;;;1.20;;
25615;SDS011;13482;48.234;13.006;2024-03-17T00:51:04;2.38;;;1.48;;
25615;SDS011;13482;48.234;13.006;2024-03-17T00:53:30;2.53;;;1.42;;
25615;SDS011;13482;48.234;13.006;2024-03-17T00:55:57;4.65;;;1.95;;
25615;SDS011;13482;48.234;13.006;2024-03-17T00:58:24;2.10;;;1.33;;
25615;SDS011;13482;48.234;13.006;2024-03-17T01:00:50;1.90;;;1.50;;
25615;SDS011;13482;48.234;13.006;2024-03-17T01:03:16;2.22;;;1.58;;
25615;SDS011;13482;48.234;13.006;2024-03-17T01:05:44;2.30;;;1.50;;
25615;SDS011;13482;48.234;13.006;2024-03-17T01:08:13;2.95;;;1.40;;
25615;SDS011;13482;48.234;13.006;2024-03-17T01:10:40;2.78;;;1.63;;
25615;SDS011;13482;48.234;13.006;2024-03-17T01:13:07;2.00;;;1.42;;
25615;SDS011;13482;48.234;13.006;2024-03-17T01:15:36;2.38;;;1.58;;
25615;SDS011;13482;48.234;13.006;2024-03-17T01:18:04;2.85;;;1.70;;
25615;SDS011;13482;48.234;13.006;2024-03-17T01:20:32;2.30;;;1.48;;
25615;SDS011;13482;48.234;13.006;2024-03-17T01:23:03;1.70;;;1.17;;
25615;SDS011;13482;48.234;13.006;2024-03-17T01:25:30;2.80;;;1.70;;
25615;SDS011;13482;48.234;13.006;2024-03-17T01:28:01;3.50;;;1.67;;
25615;SDS011;13482;48.234;13.006;2024-03-17T01:30:32;2.03;;;1.35;;
25615;SDS011;13482;48.234;13.006;2024-03-17T01:32:59;2.03;;;1.52;;
25615;SDS011;13482;48.234;13.006;2024-03-17T01:35:26;2.65;;;1.75;;
25615;SDS011;13482;48.234;13.006;2024-03-17T01:37:53;2.03;;;1.52;;
25615;SDS011;13482;48.234;13.006;2024-03-17T01:40:19;2.30;;;1.65;;
25615;SDS011;13482;48.234;13.006;2024-03-17T01:42:46;2.58;;;1.70;;
25615;SDS011;13482;48.234;13.006;2024-03-17T01:45:32;2.40;;;1.55;;
25615;SDS011;13482;48.234;13.006;2024-03-17T01:48:00;2.50;;;1.67;;
25615;SDS011;13482;48.234;13.006;2024-03-17T01:50:31;2.72;;;1.63;;
25615;SDS011;13482;48.234;13.006;2024-03-17T01:53:01;2.00;;;1.52;;
25615;SDS011;13482;48.234;13.006;2024-03-17T01:55:31;2.47;;;1.67;;
25615;SDS011;13482;48.234;13.006;2024-03-17T01:58:02;2.58;;;1.77;;
25615;SDS011;13482;48.234;13.006;2024-03-17T02:00:34;2.15;;;1.58;;
25615;SDS011;13482;48.234;13.006;2024-03-17T02:03:05;2.60;;;1.80;;
25615;SDS011;13482;48.234;13.006;2024-03-17T02:05:37;2.90;;;1.80;;
25615;SDS011;13482;48.234;13.006;2024-03-17T02:08:06;2.95;;;1.75;;
25615;SDS011;13482;48.234;13.006;2024-03-17T02:10:33;2.42;;;1.70;;
25615;SDS011;13482;48.234;13.006;2024-03-17T02:13:00;2.63;;;1.65;;
25615;SDS011;13482;48.234;13.006;2024-03-17T02:15:29;2.90;;;1.88;;
25615;SDS011;13482;48.234;13.006;2024-03-17T02:17:56;2.47;;;1.67;;
25615;SDS011;13482;48.234;13.006;2024-03-17T02:20:22;2.40;;;1.73;;
25615;SDS011;13482;48.234;13.006;2024-03-17T02:23:07;2.50;;;1.80;;
25615;SDS011;13482;48.234;13.006;2024-03-17T02:25:34;2.90;;;1.73;;
25615;SDS011;13482;48.234;13.006;2024-03-17T02:28:00;2.47;;;1.98;;
25615;SDS011;13482;48.234;13.006;2024-03-17T02:30:27;2.40;;;1.77;;
25615;SDS011;13482;48.234;13.006;2024-03-17T02:32:54;2.80;;;1.67;;
25615;SDS011;13482;48.234;13.006;2024-03-17T02:35:21;3.20;;;2.00;;
25615;SDS011;13482;48.234;13.006;2024-03-17T02:37:51;2.80;;;2.22;;
25615;SDS011;13482;48.234;13.006;2024-03-17T02:40:18;3.00;;;2.00;;
25615;SDS011;13482;48.234;13.006;2024-03-17T02:42:44;2.88;;;2.10;;
25615;SDS011;13482;48.234;13.006;2024-03-17T02:45:11;2.90;;;2.00;;
25615;SDS011;13482;48.234;13.006;2024-03-17T02:47:38;3.17;;;1.90;;
25615;SDS011;13482;48.234;13.006;2024-03-17T02:50:06;3.33;;;2.03;;
25615;SDS011;13482;48.234;13.006;2024-03-17T02:52:34;3.17;;;2.00;;
25615;SDS011;13482;48.234;13.006;2024-03-17T02:55:01;3.58;;;2.10;;
25615;SDS011;13482;48.234;13.006;2024-03-17T02:57:27;3.58;;;2.00;;
25615;SDS011;13482;48.234;13.006;2024-03-17T02:59:58;2.80;;;1.75;;
25615;SDS011;13482;48.234;13.006;2024-03-17T03:02:24;2.70;;;1.88;;
25615;SDS011;13482;48.234;13.006;2024-03-17T03:04:51;3.08;;;1.92;;
25615;SDS011;13482;48.234;13.006;2024-03-17T03:07:17;3.00;;;1.85;;
25615;SDS011;13482;48.234;13.006;2024-03-17T03:09:44;2.20;;;1.48;;
25615;SDS011;13482;48.234;13.006;2024-03-17T03:12:11;6.53;;;2.03;;
25615;SDS011;13482;48.234;13.006;2024-03-17T03:14:37;3.28;;;2.08;;
25615;SDS011;13482;48.234;13.006;2024-03-17T03:17:03;3.13;;;1.92;;
25615;SDS011;13482;48.234;13.006;2024-03-17T03:19:30;3.50;;;2.20;;
25615;SDS011;13482;48.234;13.006;2024-03-17T03:21:56;2.78;;;1.73;;
25615;SDS011;13482;48.234;13.006;2024-03-17T03:24:22;3.95;;;2.15;;
25615;SDS011;13482;48.234;13.006;2024-03-17T03:26:49;4.22;;;1.77;;
25615;SDS011;13482;48.234;13.006;2024-03-17T03:29:15;3.15;;;2.22;;
25615;SDS011;13482;48.234;13.006;2024-03-17T03:31:42;3.00;;;2.05;;
25615;SDS011;13482;48.234;13.006;2024-03-17T03:34:08;2.80;;;1.85;;
25615;SDS011;13482;48.234;13.006;2024-03-17T03:36:35;3.05;;;2.17;;
25615;SDS011;13482;48.234;13.006;2024-03-17T03:39:03;2.72;;;2.00;;
25615;SDS011;13482;48.234;13.006;2024-03-17T03:41:35;3.60;;;2.13;;
25615;SDS011;13482;48.234;13.006;2024-03-17T03:44:02;3.25;;;2.03;;
25615;SDS011;13482;48.234;13.006;2024-03-17T03:46:29;3.47;;;2.40;;
25615;SDS011;13482;48.234;13.006;2024-03-17T03:48:56;3.72;;;2.30;;
25615;SDS011;13482;48.234;13.006;2024-03-17T03:51:23;3.40;;;2.38;;
25615;SDS011;13482;48.234;13.006;2024-03-17T03:53:50;3.00;;;2.00;;
25615;SDS011;13482;48.234;13.006;2024-03-17T03:56:17;3.20;;;2.15;;
25615;SDS011;13482;48.234;13.006;2024-03-17T03:58:46;3.30;;;2.00;;
25615;SDS011;13482;48.234;13.006;2024-03-17T04:01:12;2.58;;;1.63;;
25615;SDS011;13482;48.234;13.006;2024-03-17T04:03:47;2.90;;;1.40;;
25615;SDS011;13482;48.234;13.006;2024-03-17T04:06:14;3.08;;;2.08;;
25615;SDS011;13482;48.234;13.006;2024-03-17T04:08:41;2.70;;;1.80;;
25615;SDS011;13482;48.234;13.006;2024-03-17T04:11:08;2.58;;;1.75;;
25615;SDS011;13482;48.234;13.006;2024-03-17T04:13:36;2.28;;;1.40;;
25615;SDS011;13482;48.234;13.006;2024-03-17T04:16:06;2.40;;;1.80;;
25615;SDS011;13482;48.234;13.006;2024-03-17T04:18:33;2.88;;;1.67;;
25615;SDS011;13482;48.234;13.006;2024-03-17T04:21:04;3.28;;;2.20;;
25615;SDS011;13482;48.234;13.006;2024-03-17T04:23:34;2.90;;;1.80;;
25615;SDS011;13482;48.234;13.006;2024-03-17T04:26:01;2.38;;;1.58;;
25615;SDS011;13482;48.234;13.006;2024-03-17T04:28:29;2.35;;;1.90;;
25615;SDS011;13482;48.234;13.006;2024-03-17T04:31:06;3.17;;;2.10;;
25615;SDS011;13482;48.234;13.006;2024-03-17T04:33:32;3.33;;;2.20;;
25615;SDS011;13482;48.234;13.006;2024-03-17T04:36:00;2.55;;;1.75;;
25615;SDS011;13482;48.234;13.006;2024-03-17T04:38:28;3.47;;;1.90;;
25615;SDS011;13482;48.234;13.006;2024-03-17T04:40:54;2.67;;;1.83;;
25615;SDS011;13482;48.234;13.006;2024-03-17T04:43:33;3.15;;;1.73;;
25615;SDS011;13482;48.234;13.006;2024-03-17T04:46:03;2.03;;;1.50;;
25615;SDS011;13482;48.234;13.006;2024-03-17T04:48:32;2.33;;;1.50;;
25615;SDS011;13482;48.234;13.006;2024-03-17T04:50:59;2.88;;;1.60;;
25615;SDS011;13482;48.234;13.006;2024-03-17T04:53:27;2.03;;;1.30;;
25615;SDS011;13482;48.234;13.006;2024-03-17T04:56:04;1.95;;;1.30;;
25615;SDS011;13482;48.234;13.006;2024-03-17T04:58:31;2.70;;;1.60;;
25615;SDS011;13482;48.234;13.006;2024-03-17T05:01:08;2.35;;;1.58;;
25615;SDS011;13482;48.234;13.006;2024-03-17T05:03:36;2.55;;;1.85;;
25615;SDS011;13482;48.234;13.006;2024-03-17T05:06:09;2.65;;;1.60;;
25615;SDS011;13482;48.234;13.006;2024-03-17T05:08:36;2.40;;;1.60;;
25615;SDS011;13482;48.234;13.006;2024-03-17T05:11:03;2.25;;;1.67;;
25615;SDS011;13482;48.234;13.006;2024-03-17T05:13:31;3.40;;;1.60;;
25615;SDS011;13482;48.234;13.006;2024-03-17T05:16:00;2.80;;;2.00;;
25615;SDS011;13482;48.234;13.006;2024-03-17T05:18:31;3.08;;;2.05;;
25615;SDS011;13482;48.234;13.006;2024-03-17T05:21:02;3.20;;;2.17;;
25615;SDS011;13482;48.234;13.006;2024-03-17T05:23:31;3.10;;;1.95;;
25615;SDS011;13482;48.234;13.006;2024-03-17T05:25:59;3.95;;;2.15;;
25615;SDS011;13482;48.234;13.006;2024-03-17T05:28:27;3.28;;;2.25;;
25615;SDS011;13482;48.234;13.006;2024-03-17T05:30:54;2.88;;;2.03;;
25615;SDS011;13482;48.234;13.006;2024-03-17T05:33:23;3.38;;;2.45;;
25615;SDS011;13482;48.234;13.006;2024-03-17T05:35:52;3.60;;;2.30;;
25615;SDS011;13482;48.234;13.006;2024-03-17T05:38:21;3.83;;;2.47;;
25615;SDS011;13482;48.234;13.006;2024-03-17T05:40:59;3.00;;;2.20;;
25615;SDS011;13482;48.234;13.006;2024-03-17T05:43:29;2.47;;;1.85;;
25615;SDS011;13482;48.234;13.006;2024-03-17T05:46:12;2.90;;;2.00;;
25615;SDS011;13482;48.234;13.006;2024-03-17T05:48:40;2.75;;;2.10;;
25615;SDS011;13482;48.234;13.006;2024-03-17T05:51:07;4.80;;;2.35;;
25615;SDS011;13482;48.234;13.006;2024-03-17T05:53:35;3.15;;;2.35;;
25615;SDS011;13482;48.234;13.006;2024-03-17T05:56:05;3.75;;;2.83;;
25615;SDS011;13482;48.234;13.006;2024-03-17T05:58:34;3.58;;;2.42;;
25615;SDS011;13482;48.234;13.006;2024-03-17T06:01:01;4.90;;;2.72;;
25615;SDS011;13482;48.234;13.006;2024-03-17T06:03:29;3.75;;;2.83;;
25615;SDS011;13482;48.234;13.006;2024-03-17T06:05:55;3.88;;;2.72;;
25615;SDS011;13482;48.234;13.006;2024-03-17T06:08:25;3.13;;;2.15;;
25615;SDS011;13482;48.234;13.006;2024-03-17T06:10:52;3.25;;;2.40;;
25615;SDS011;13482;48.234;13.006;2024-03-17T06:13:18;3.22;;;2.45;;
25615;SDS011;13482;48.234;13.006;2024-03-17T06:15:44;3.22;;;2.33;;
25615;SDS011;13482;48.234;13.006;2024-03-17T06:18:14;3.88;;;2.47;;
25615;SDS011;13482;48.234;13.006;2024-03-17T06:20:46;2.92;;;2.08;;
25615;SDS011;13482;48.234;13.006;2024-03-17T06:23:14;2.97;;;2.15;;
25615;SDS011;13482;48.234;13.006;2024-03-17T06:25:42;3.72;;;2.50;;
25615;SDS011;13482;48.234;13.006;2024-03-17T06:28:14;5.10;;;2.78;;
25615;SDS011;13482;48.234;13.006;2024-03-17T06:30:46;2.95;;;2.10;;
25615;SDS011;13482;48.234;13.006;2024-03-17T06:33:22;2.72;;;2.13;;
25615;SDS011;13482;48.234;13.006;2024-03-17T06:35:48;2.50;;;1.70;;
25615;SDS011;13482;48.234;13.006;2024-03-17T06:38:15;3.00;;;2.20;;
25615;SDS011;13482;48.234;13.006;2024-03-17T06:40:42;2.97;;;2.10;;
25615;SDS011;13482;48.234;13.006;2024-03-17T06:43:19;3.75;;;2.42;;
25615;SDS011;13482;48.234;13.006;2024-03-17T06:45:58;3.42;;;2.55;;
25615;SDS011;13482;48.234;13.006;2024-03-17T06:48:26;3.55;;;2.58;;
25615;SDS011;13482;48.234;13.006;2024-03-17T06:50:54;4.20;;;3.08;;
25615;SDS011;13482;48.234;13.006;2024-03-17T06:53:21;4.68;;;3.13;;
25615;SDS011;13482;48.234;13.006;2024-03-17T06:55:53;4.13;;;3.00;;
25615;SDS011;13482;48.234;13.006;2024-03-17T06:58:20;3.83;;;2.78;;
25615;SDS011;13482;48.234;13.006;2024-03-17T07:00:52;3.88;;;3.15;;
25615;SDS011;13482;48.234;13.006;2024-03-17T07:05:52;4.13;;;2.65;;
25615;SDS011;13482;48.234;13.006;2024-03-17T07:08:23;4.50;;;2.90;;
25615;SDS011;13482;48.234;13.006;2024-03-17T07:10:57;3.63;;;2.85;;
25615;SDS011;13482;48.234;13.006;2024-03-17T07:13:24;6.32;;;4.60;;
25615;SDS011;13482;48.234;13.006;2024-03-17T07:15:51;5.43;;;3.30;;
25615;SDS011;13482;48.234;13.006;2024-03-17T07:18:18;4.45;;;3.35;;
25615;SDS011;13482;48.234;13.006;2024-03-17T07:20:44;6.25;;;3.63;;
25615;SDS011;13482;48.234;13.006;2024-03-17T07:23:16;4.30;;;3.30;;
25615;SDS011;13482;48.234;13.006;2024-03-17T07:25:42;5.07;;;3.65;;
25615;SDS011;13482;48.234;13.006;2024-03-17T07:28:25;5.63;;;3.47;;
25615;SDS011;13482;48.234;13.006;2024-03-17T07:30:52;4.82;;;3.60;;
25615;SDS011;13482;48.234;13.006;2024-03-17T07:33:23;4.30;;;3.15;;
25615;SDS011;13482;48.234;13.006;2024-03-17T07:35:50;4.35;;;3.13;;
25615;SDS011;13482;48.234;13.006;2024-03-17T07:38:22;5.25;;;3.97;;
25615;SDS011;13482;48.234;13.006;2024-03-17T07:40:59;5.45;;;3.88;;
25615;SDS011;13482;48.234;13.006;2024-03-17T07:43:34;5.50;;;3.95;;
25615;SDS011;13482;48.234;13.006;2024-03-17T07:46:05;5.27;;;3.80;;
25615;SDS011;13482;48.234;13.006;2024-03-17T07:48:40;4.43;;;3.42;;
25615;SDS011;13482;48.234;13.006;2024-03-17T07:51:09;4.07;;;3.15;;
25615;SDS011;13482;48.234;13.006;2024-03-17T07:53:44;5.07;;;3.35;;
25615;SDS011;13482;48.234;13.006;2024-03-17T07:56:13;4.07;;;2.97;;
25615;SDS011;13482;48.234;13.006;2024-03-17T07:58:42;4.38;;;3.47;;
25615;SDS011;13482;48.234;13.006;2024-03-17T08:01:10;4.78;;;3.35;;
25615;SDS011;13482;48.234;13.006;2024-03-17T08:03:42;4.53;;;3.40;;
25615;SDS011;13482;48.234;13.006;2024-03-17T08:06:12;4.32;;;3.15;;
25615;SDS011;13482;48.234;13.006;2024-03-17T08:08:39;4.25;;;3.33;;
25615;SDS011;13482;48.234;13.006;2024-03-17T08:11:06;3.97;;;3.10;;
25615;SDS011;13482;48.234;13.006;2024-03-17T08:13:32;4.03;;;3.20;;
25615;SDS011;13482;48.234;13.006;2024-03-17T08:16:06;5.72;;;3.30;;
25615;SDS011;13482;48.234;13.006;2024-03-17T08:18:36;4.03;;;3.22;;
25615;SDS011;13482;48.234;13.006;2024-03-17T08:21:03;4.78;;;3.22;;
25615;SDS011;13482;48.234;13.006;2024-03-17T08:23:32;4.53;;;3.42;;
25615;SDS011;13482;48.234;13.006;2024-03-17T08:26:03;4.60;;;3.65;;
25615;SDS011;13482;48.234;13.006;2024-03-17T08:28:29;4.68;;;3.45;;
25615;SDS011;13482;48.234;13.006;2024-03-17T08:31:02;4.20;;;3.30;;
25615;SDS011;13482;48.234;13.006;2024-03-17T08:33:29;4.95;;;3.65;;
25615;SDS011;13482;48.234;13.006;2024-03-17T08:36:02;5.03;;;3.83;;
25615;SDS011;13482;48.234;13.006;2024-03-17T08:38:32;4.53;;;3.70;;
25615;SDS011;13482;48.234;13.006;2024-03-17T08:41:03;4.70;;;3.42;;
25615;SDS011;13482;48.234;13.006;2024-03-17T08:43:35;5.85;;;3.65;;
25615;SDS011;13482;48.234;13.006;2024-03-17T08:46:04;4.13;;;3.15;;
25615;SDS011;13482;48.234;13.006;2024-03-17T08:48:33;4.28;;;3.55;;
25615;SDS011;13482;48.234;13.006;2024-03-17T08:51:01;4.28;;;3.65;;
25615;SDS011;13482;48.234;13.006;2024-03-17T08:53:30;4.18;;;3.25;;
25615;SDS011;13482;48.234;13.006;2024-03-17T08:55:57;4.85;;;3.50;;
25615;SDS011;13482;48.234;13.006;2024-03-17T08:58:25;4.55;;;3.42;;
25615;SDS011;13482;48.234;13.006;2024-03-17T09:00:52;4.13;;;3.13;;
25615;SDS011;13482;48.234;13.006;2024-03-17T09:03:19;4.03;;;2.88;;
25615;SDS011;13482;48.234;13.006;2024-03-17T09:05:46;4.18;;;3.17;;
25615;SDS011;13482;48.234;13.006;2024-03-17T09:08:18;5.03;;;3.20;;
25615;SDS011;13482;48.234;13.006;2024-03-17T09:10:51;4.10;;;3.40;;
25615;SDS011;13482;48.234;13.006;2024-03-17T09:13:19;4.05;;;2.90;;
25615;SDS011;13482;48.234;13.006;2024-03-17T09:18:18;2.88;;;2.35;;
25615;SDS011;13482;48.234;13.006;2024-03-17T09:20:45;5.22;;;3.20;;
25615;SDS011;13482;48.234;13.006;2024-03-17T09:23:12;3.60;;;3.03;;
25615;SDS011;13482;48.234;13.006;2024-03-17T09:25:39;4.13;;;3.05;;
25615;SDS011;13482;48.234;13.006;2024-03-17T09:28:06;5.30;;;2.80;;
25615;SDS011;13482;48.234;13.006;2024-03-17T09:30:32;3.97;;;2.72;;
25615;SDS011;13482;48.234;13.006;2024-03-17T09:32:59;3.30;;;2.55;;
25615;SDS011;13482;48.234;13.006;2024-03-17T09:35:25;4.07;;;3.00;;
25615;SDS011;13482;48.234;13.006;2024-03-17T09:37:51;3.03;;;2.30;;
25615;SDS011;13482;48.234;13.006;2024-03-17T09:40:18;4.22;;;2.58;;
25615;SDS011;13482;48.234;13.006;2024-03-17T09:42:44;3.42;;;2.53;;
25615;SDS011;13482;48.234;13.006;2024-03-17T09:45:10;3.08;;;2.33;;
25615;SDS011;13482;48.234;13.006;2024-03-17T09:47:39;4.00;;;2.78;;
25615;SDS011;13482;48.234;13.006;2024-03-17T09:50:12;2.92;;;2.40;;
25615;SDS011;13482;48.234;13.006;2024-03-17T09:52:44;3.17;;;2.13;;
25615;SDS011;13482;48.234;13.006;2024-03-17T09:55:15;3.15;;;2.28;;
25615;SDS011;13482;48.234;13.006;2024-03-17T09:57:43;3.25;;;2.42;;
25615;SDS011;13482;48.234;13.006;2024-03-17T10:00:12;3.47;;;2.40;;
25615;SDS011;13482;48.234;13.006;2024-03-17T10:02:43;3.45;;;2.30;;
25615;SDS011;13482;48.234;13.006;2024-03-17T10:05:20;2.70;;;1.92;;
25615;SDS011;13482;48.234;13.006;2024-03-17T10:07:49;2.85;;;2.00;;
25615;SDS011;13482;48.234;13.006;2024-03-17T10:10:18;2.80;;;2.10;;
25615;SDS011;13482;48.234;13.006;2024-03-17T10:12:50;2.50;;;1.90;;
25615;SDS011;13482;48.234;13.006;2024-03-17T10:15:17;2.22;;;1.77;;
25615;SDS011;13482;48.234;13.006;2024-03-17T10:17:49;2.40;;;1.60;;
25615;SDS011;13482;48.234;13.006;2024-03-17T10:20:19;2.20;;;1.58;;
25615;SDS011;13482;48.234;13.006;2024-03-17T10:23:05;2.03;;;1.70;;
25615;SDS011;13482;48.234;13.006;2024-03-17T10:25:34;1.98;;;1.30;;
25615;SDS011;13482;48.234;13.006;2024-03-17T10:28:11;2.30;;;1.50;;
25615;SDS011;13482;48.234;13.006;2024-03-17T10:30:39;2.22;;;1.48;;
25615;SDS011;13482;48.234;13.006;2024-03-17T10:33:06;1.95;;;1.52;;
25615;SDS011;13482;48.234;13.006;2024-03-17T10:35:48;2.30;;;1.60;;
25615;SDS011;13482;48.234;13.006;2024-03-17T10:38:14;3.10;;;1.95;;
25615;SDS011;13482;48.234;13.006;2024-03-17T10:40:41;1.70;;;1.30;;
25615;SDS011;13482;48.234;13.006;2024-03-17T10:43:08;2.45;;;1.77;;
25615;SDS011;13482;48.234;13.006;2024-03-17T10:45:37;2.20;;;1.50;;
25615;SDS011;13482;48.234;13.006;2024-03-17T10:48:07;2.70;;;1.40;;
25615;SDS011;13482;48.234;13.006;2024-03-17T10:50:38;2.08;;;1.50;;
25615;SDS011;13482;48.234;13.006;2024-03-17T10:53:06;2.22;;;1.50;;
25615;SDS011;13482;48.234;13.006;2024-03-17T10:55:43;1.55;;;1.10;;
25615;SDS011;13482;48.234;13.006;2024-03-17T10:58:33;2.90;;;1.60;;
25615;SDS011;13482;48.234;13.006;2024-03-17T11:01:03;2.42;;;1.40;;
25615;SDS011;13482;48.234;13.006;2024-03-17T11:03:34;2.03;;;1.33;;
25615;SDS011;13482;48.234;13.006;2024-03-17T11:06:01;1.98;;;1.30;;
25615;SDS011;13482;48.234;13.006;2024-03-17T11:08:34;1.92;;;1.10;;
25615;SDS011;13482;48.234;13.006;2024-03-17T11:11:03;2.00;;;1.45;;
25615;SDS011;13482;48.234;13.006;2024-03-17T11:13:30;1.40;;;1.10;;
25615;SDS011;13482;48.234;13.006;2024-03-17T11:15:58;1.70;;;1.10;;
25615;SDS011;13482;48.234;13.006;2024-03-17T11:18:36;2.42;;;1.50;;
25615;SDS011;13482;48.234;13.006;2024-03-17T11:21:12;2.55;;;1.40;;
25615;SDS011;13482;48.234;13.006;2024-03-17T11:23:57;1.58;;;1.10;;
25615;SDS011;13482;48.234;13.006;2024-03-17T11:26:29;3.88;;;1.13;;
25615;SDS011;13482;48.234;13.006;2024-03-17T11:28:59;2.15;;;1.30;;
25615;SDS011;13482;48.234;13.006;2024-03-17T11:31:34;2.00;;;1.13;;
25615;SDS011;13482;48.234;13.006;2024-03-17T11:34:31;1.90;;;1.20;;
25615;SDS011;13482;48.234;13.006;2024-03-17T11:37:05;1.70;;;1.20;;
25615;SDS011;13482;48.234;13.006;2024-03-17T11:39:50;1.92;;;1.10;;
25615;SDS011;13482;48.234;13.006;2024-03-17T11:42:27;1.52;;;1.10;;
25615;SDS011;13482;48.234;13.006;2024-03-17T11:47:36;2.10;;;1.13;;
25615;SDS011;13482;48.234;13.006;2024-03-17T11:50:06;1.33;;;0.90;;
25615;SDS011;13482;48.234;13.006;2024-03-17T11:52:38;1.75;;;0.93;;
25615;SDS011;13482;48.234;13.006;2024-03-17T11:55:15;1.30;;;0.80;;
25615;SDS011;13482;48.234;13.006;2024-03-17T11:57:43;3.05;;;0.90;;
25615;SDS011;13482;48.234;13.006;2024-03-17T12:00:18;1.30;;;0.80;;
25615;SDS011;13482;48.234;13.006;2024-03-17T12:02:49;1.85;;;0.70;;
25615;SDS011;13482;48.234;13.006;2024-03-17T12:05:15;1.52;;;0.90;;
25615;SDS011;13482;48.234;13.006;2024-03-17T12:07:42;2.13;;;0.80;;
25615;SDS011;13482;48.234;13.006;2024-03-17T12:10:13;1.55;;;0.90;;
25615;SDS011;13482;48.234;13.006;2024-03-17T12:12:40;1.73;;;0.75;;
25615;SDS011;13482;48.234;13.006;2024-03-17T12:15:17;1.15;;;0.80;;
25615;SDS011;13482;48.234;13.006;2024-03-17T12:17:45;1.60;;;0.90;;
25615;SDS011;13482;48.234;13.006;2024-03-17T12:20:19;2.17;;;1.17;;
25615;SDS011;13482;48.234;13.006;2024-03-17T12:22:47;1.65;;;1.13;;
25615;SDS011;13482;48.234;13.006;2024-03-17T12:25:18;1.63;;;1.00;;
25615;SDS011;13482;48.234;13.006;2024-03-17T12:27:48;1.40;;;0.90;;
25615;SDS011;13482;48.234;13.006;2024-03-17T12:30:15;2.38;;;0.80;;
25615;SDS011;13482;48.234;13.006;2024-03-17T12:32:43;1.85;;;1.05;;
25615;SDS011;13482;48.234;13.006;2024-03-17T12:35:14;1.15;;;0.82;;
25615;SDS011;13482;48.234;13.006;2024-03-17T12:37:43;1.42;;;1.20;;
25615;SDS011;13482;48.234;13.006;2024-03-17T12:40:21;1.42;;;0.88;;
25615;SDS011;13482;48.234;13.006;2024-03-17T12:42:49;2.00;;;1.08;;
25615;SDS011;13482;48.234;13.006;2024-03-17T12:45:20;1.85;;;0.95;;
25615;SDS011;13482;48.234;13.006;2024-03-17T12:47:48;3.00;;;1.15;;
25615;SDS011;13482;48.234;13.006;2024-03-17T12:50:16;1.20;;;0.80;;
25615;SDS011;13482;48.234;13.006;2024-03-17T12:52:53;2.08;;;1.10;;
25615;SDS011;13482;48.234;13.006;2024-03-17T12:55:23;1.30;;;0.80;;
25615;SDS011;13482;48.234;13.006;2024-03-17T12:58:09;1.50;;;0.90;;
25615;SDS011;13482;48.234;13.006;2024-03-17T13:01:02;1.02;;;0.70;;
25615;SDS011;13482;48.234;13.006;2024-03-17T13:03:31;1.20;;;0.90;;
25615;SDS011;13482;48.234;13.006;2024-03-17T13:06:10;2.00;;;1.10;;
25615;SDS011;13482;48.234;13.006;2024-03-17T13:08:50;1.50;;;1.00;;
25615;SDS011;13482;48.234;13.006;2024-03-17T13:11:16;1.90;;;0.90;;
25615;SDS011;13482;48.234;13.006;2024-03-17T13:13:43;1.48;;;0.80;;
25615;SDS011;13482;48.234;13.006;2024-03-17T13:16:09;1.40;;;0.85;;
25615;SDS011;13482;48.234;13.006;2024-03-17T13:18:38;0.77;;;0.65;;
25615;SDS011;13482;48.234;13.006;2024-03-17T13:21:05;1.48;;;0.88;;
25615;SDS011;13482;48.234;13.006;2024-03-17T13:23:32;1.08;;;0.60;;
25615;SDS011;13482;48.234;13.006;2024-03-17T13:25:59;1.02;;;0.65;;
25615;SDS011;13482;48.234;13.006;2024-03-17T13:28:26;1.65;;;0.93;;
25615;SDS011;13482;48.234;13.006;2024-03-17T13:30:52;1.60;;;0.80;;
25615;SDS011;13482;48.234;13.006;2024-03-17T13:33:19;2.33;;;0.90;;
25615;SDS011;13482;48.234;13.006;2024-03-17T13:35:45;1.60;;;0.80;;
25615;SDS011;13482;48.234;13.006;2024-03-17T13:38:11;1.70;;;0.70;;
25615;SDS011;13482;48.234;13.006;2024-03-17T13:40:39;2.15;;;0.95;;
25615;SDS011;13482;48.234;13.006;2024-03-17T13:43:08;1.17;;;0.75;;
25615;SDS011;13482;48.234;13.006;2024-03-17T13:45:38;1.33;;;0.85;;
25615;SDS011;13482;48.234;13.006;2024-03-17T13:48:08;1.50;;;0.80;;
25615;SDS011;13482;48.234;13.006;2024-03-17T13:50:38;1.58;;;0.85;;
25615;SDS011;13482;48.234;13.006;2024-03-17T13:53:07;1.20;;;0.80;;
25615;SDS011;13482;48.234;13.006;2024-03-17T13:55:33;1.30;;;0.70;;
25615;SDS011;13482;48.234;13.006;2024-03-17T13:58:00;1.10;;;0.75;;
25615;SDS011;13482;48.234;13.006;2024-03-17T14:00:28;2.10;;;0.90;;
25615;SDS011;13482;48.234;13.006;2024-03-17T14:03:05;1.27;;;0.77;;
25615;SDS011;13482;48.234;13.006;2024-03-17T14:05:31;1.67;;;0.88;;
25615;SDS011;13482;48.234;13.006;2024-03-17T14:08:01;1.75;;;0.82;;
25615;SDS011;13482;48.234;13.006;2024-03-17T14:10:30;1.23;;;0.70;;
25615;SDS011;13482;48.234;13.006;2024-03-17T14:12:56;1.70;;;0.70;;
25615;SDS011;13482;48.234;13.006;2024-03-17T14:15:23;2.38;;;0.90;;
25615;SDS011;13482;48.234;13.006;2024-03-17T14:17:50;1.25;;;0.80;;
25615;SDS011;13482;48.234;13.006;2024-03-17T14:20:17;1.15;;;0.65;;
25615;SDS011;13482;48.234;13.006;2024-03-17T14:22:44;1.40;;;0.80;;
25615;SDS011;13482;48.234;13.006;2024-03-17T14:25:19;2.00;;;0.80;;
25615;SDS011;13482;48.234;13.006;2024-03-17T14:27:47;1.60;;;0.80;;
25615;SDS011;13482;48.234;13.006;2024-03-17T14:30:16;0.82;;;0.63;;
25615;SDS011;13482;48.234;13.006;2024-03-17T14:32:44;0.98;;;0.60;;
25615;SDS011;13482;48.234;13.006;2024-03-17T14:35:17;1.63;;;0.77;;
25615;SDS011;13482;48.234;13.006;2024-03-17T14:37:48;4.95;;;1.45;;
25615;SDS011;13482;48.234;13.006;2024-03-17T14:40:18;2.50;;;1.42;;
25615;SDS011;13482;48.234;13.006;2024-03-17T14:42:54;2.30;;;1.60;;
25615;SDS011;13482;48.234;13.006;2024-03-17T14:45:21;2.13;;;1.10;;
25615;SDS011;13482;48.234;13.006;2024-03-17T14:47:50;2.05;;;1.02;;
25615;SDS011;13482;48.234;13.006;2024-03-17T14:50:17;1.25;;;0.85;;
25615;SDS011;13482;48.234;13.006;2024-03-17T14:52:44;1.52;;;0.82;;
25615;SDS011;13482;48.234;13.006;2024-03-17T14:55:11;1.48;;;0.90;;